Time;durP1;ratioP1;P1;durP2;ratioP2;P2;SDS_P1;SDS_P2;PMS_P1;PMS_P2;Temp;Humidity;BMP_temperature;BMP_pressure;BME280_temperature;BME280_humidity;BME280_pressure;Samples;Min_cycle;Max_cycle;Signal;HPM_P1;HPM_P2
2022/08/07 00:02:21;;;;;;;2.75;2.45;;;;;;;18.97;76.63;99954.78;4357417;32;34623;-73
2022/08/07 00:05:27;;;;;;;3.92;2.53;;;;;;;19.59;73.92;99955.81;4363301;32;36109;-74
2022/08/07 00:08:14;;;;;;;4.30;2.83;;;;;;;19.24;75.42;99951.06;4361490;32;34619;-74
2022/08/07 00:11:01;;;;;;;5.50;2.78;;;;;;;19.45;74.81;99958.28;4363861;32;33950;-74
2022/08/07 00:13:51;;;;;;;3.85;2.90;;;;;;;19.08;76.42;99959.41;4364129;32;34699;-75
2022/08/07 00:16:40;;;;;;;3.67;2.80;;;;;;;19.28;75.61;99954.72;4363870;32;34990;-76
2022/08/07 00:19:27;;;;;;;3.55;2.65;;;;;;;19.48;74.23;99963.09;4363562;32;34630;-76
2022/08/07 00:22:33;;;;;;;5.18;3.08;;;;;;;18.99;76.63;99955.22;4366957;32;34204;-73
2022/08/07 00:25:22;;;;;;;3.83;2.85;;;;;;;18.98;77.34;99942.50;4363638;32;34756;-73
2022/08/07 00:28:11;;;;;;;4.05;2.72;;;;;;;19.35;75.40;99950.50;4363993;32;89841;-74
2022/08/07 00:31:08;;;;;;;5.68;3.28;;;;;;;19.02;76.99;99943.41;4363433;32;35769;-73
2022/08/07 00:34:01;;;;;;;5.20;3.10;;;;;;;19.32;75.44;99952.03;4359076;32;34421;-74
2022/08/07 00:36:47;;;;;;;4.85;3.10;;;;;;;19.24;75.87;99953.03;4363412;32;34766;-74
2022/08/07 00:39:34;;;;;;;5.47;3.05;;;;;;;19.01;77.58;99950.94;4363416;32;35047;-74
2022/08/07 00:42:32;;;;;;;5.30;3.20;;;;;;;19.11;77.38;99960.69;4365508;32;34773;-74
2022/08/07 00:45:22;;;;;;;4.50;3.20;;;;;;;19.33;76.21;99943.34;4362395;32;34143;-74
2022/08/07 00:48:09;;;;;;;3.60;2.87;;;;;;;19.10;77.26;99950.75;4363334;32;34748;-74
2022/08/07 00:50:57;;;;;;;4.50;3.08;;;;;;;20.03;72.52;99938.84;4348280;32;35076;-73
2022/08/07 00:53:45;;;;;;;4.00;3.10;;;;;;;19.45;74.66;99944.38;4363259;32;34620;-74
2022/08/07 00:56:40;;;;;;;3.50;2.87;;;;;;;19.88;72.62;99939.75;4362974;32;35133;-73
2022/08/07 00:59:26;;;;;;;5.05;3.30;;;;;;;19.13;76.42;99944.47;4363023;32;33459;-73
2022/08/07 01:02:22;;;;;;;6.22;3.45;;;;;;;19.26;75.45;99937.59;4361919;32;35895;-74
2022/08/07 01:05:15;;;;;;;4.87;3.53;;;;;;;19.28;75.30;99938.06;4355407;32;34638;-74
2022/08/07 01:08:05;;;;;;;4.90;3.45;;;;;;;19.07;77.01;99934.81;4352295;32;35035;-74
2022/08/07 01:10:54;;;;;;;4.85;3.45;;;;;;;19.03;76.97;99945.00;4362974;32;35560;-74
2022/08/07 01:13:42;;;;;;;6.40;3.75;;;;;;;19.39;75.01;99941.09;4363100;32;35102;-74
2022/08/07 01:16:41;;;;;;;6.70;3.30;;;;;;;19.47;74.29;99939.28;4363156;32;34703;-74
2022/08/07 01:19:33;;;;;;;5.37;3.35;;;;;;;19.95;71.91;99934.31;4352544;32;35029;-75
2022/08/07 01:22:24;;;;;;;6.68;4.10;;;;;;;19.35;75.15;99942.97;4361976;32;34642;-74
2022/08/07 01:25:16;;;;;;;4.55;3.40;;;;;;;19.02;76.93;99932.28;4362509;32;36128;-73
2022/08/07 01:28:23;;;;;;;5.15;3.67;;;;;;;18.97;77.34;99935.34;4345615;32;34879;-75
2022/08/07 01:31:11;;;;;;;7.15;3.78;;;;;;;18.72;78.69;99938.28;4347273;33;34354;-74
2022/08/07 01:34:04;;;;;;;5.12;4.05;;;;;;;18.94;78.13;99934.09;4357213;32;34695;-75
2022/08/07 01:36:51;;;;;;;4.57;3.35;;;;;;;18.78;78.29;99934.09;4353476;32;36072;-75
2022/08/07 01:39:44;;;;;;;5.60;3.35;;;;;;;19.02;77.18;99935.88;4362770;32;35499;-75
2022/08/07 01:42:34;;;;;;;6.30;3.40;;;;;;;18.77;78.73;99932.50;4353460;32;34139;-75
2022/08/07 01:45:41;;;;;;;5.43;3.67;;;;;;;18.86;78.29;99930.31;4362550;32;34718;-74
2022/08/07 01:48:32;;;;;;;5.62;3.90;;;;;;;18.81;78.46;99938.94;4364121;32;35222;-75
2022/08/07 01:51:22;;;;;;;5.18;3.55;;;;;;;19.22;76.97;99945.06;4371338;32;34830;-73
2022/08/07 01:54:32;;;;;;;4.57;3.35;;;;;;;19.50;75.02;99938.53;4355271;32;35059;-75
2022/08/07 01:57:27;;;;;;;5.47;3.92;;;;;;;19.01;77.58;99937.06;4361460;32;34574;-75
2022/08/07 02:00:14;;;;;;;5.87;3.70;;;;;;;19.61;74.54;99931.25;4362101;32;36042;-75
2022/08/07 02:03:09;;;;;;;6.05;3.53;;;;;;;19.70;74.02;99931.84;4362575;32;35721;-75
2022/08/07 02:06:11;;;;;;;4.55;3.30;;;;;;;19.23;76.66;99943.88;4354798;32;34251;-74
2022/08/07 02:09:19;;;;;;;5.35;3.60;;;;;;;19.43;75.38;99935.59;4363547;32;35456;-73
2022/08/07 02:12:30;;;;;;;6.00;3.60;;;;;;;19.39;75.80;99940.28;4355491;32;35040;-74
2022/08/07 02:15:21;;;;;;;5.78;3.90;;;;;;;19.06;77.39;99947.06;4353152;32;35583;-74
2022/08/07 02:18:11;;;;;;;4.35;3.45;;;;;;;19.17;76.64;99945.34;4356200;32;34260;-74
2022/08/07 02:20:59;;;;;;;5.03;3.97;;;;;;;19.05;77.62;99939.91;4363849;32;34666;-75
2022/08/07 02:23:51;;;;;;;5.82;4.03;;;;;;;18.95;77.97;99949.56;4360681;32;35956;-75
2022/08/07 02:26:39;;;;;;;9.98;4.10;;;;;;;18.68;79.63;99956.81;4363100;32;34848;-74
2022/08/07 02:29:29;;;;;;;5.95;4.10;;;;;;;18.91;78.62;99953.44;4363318;32;35233;-74
2022/08/07 02:32:18;;;;;;;6.00;3.62;;;;;;;18.76;78.78;99955.87;4366675;32;34571;-74
2022/08/07 02:35:09;;;;;;;6.28;3.72;;;;;;;18.88;78.48;99957.75;4354768;32;35065;-73
2022/08/07 02:37:57;;;;;;;7.15;3.95;;;;;;;19.46;75.63;99957.09;4368701;32;34602;-74
2022/08/07 02:40:45;;;;;;;6.80;4.15;;;;;;;19.64;74.46;99958.31;4361620;32;35246;-74
2022/08/07 02:43:34;;;;;;;6.37;3.50;;;;;;;19.09;76.73;99960.22;4363518;32;34671;-74
2022/08/07 02:46:25;;;;;;;5.68;3.87;;;;;;;19.12;76.78;99962.28;4355495;32;35081;-74
2022/08/07 02:49:15;;;;;;;5.40;3.63;;;;;;;19.35;75.54;99967.16;4355749;32;34607;-75
2022/08/07 02:52:52;;;;;;;5.57;4.12;;;;;;;19.37;75.96;99971.19;4357215;32;34259;-74
2022/08/07 02:55:42;;;;;;;5.70;3.90;;;;;;;19.27;75.92;99961.47;4343053;32;35463;-74
2022/08/07 02:58:50;;;;;;;6.72;3.85;;;;;;;19.16;77.21;99965.97;4353340;32;34999;-74
2022/08/07 03:01:40;;;;;;;5.90;4.00;;;;;;;18.90;77.56;99949.88;4360341;32;35477;-74
2022/08/07 03:04:32;;;;;;;5.90;4.20;;;;;;;19.26;76.36;99954.28;4353464;32;35122;-75
2022/08/07 03:07:19;;;;;;;5.35;3.97;;;;;;;19.02;77.13;99963.66;4363889;32;35536;-74
2022/08/07 03:10:26;;;;;;;5.97;4.12;;;;;;;18.66;79.59;99954.38;4363280;32;35053;-75
2022/08/07 03:13:17;;;;;;;5.80;3.70;;;;;;;19.04;77.53;99955.75;4364081;32;34714;-74
2022/08/07 03:16:05;;;;;;;6.40;4.07;;;;;;;19.18;77.21;99958.06;4351787;32;34353;-73
2022/08/07 03:18:51;;;;;;;6.95;3.50;;;;;;;19.33;75.90;99960.00;4337821;33;34966;-74
2022/08/07 03:21:39;;;;;;;6.82;4.07;;;;;;;19.73;73.82;99947.81;4363961;32;34998;-73
2022/08/07 03:24:35;;;;;;;6.28;3.67;;;;;;;19.00;77.45;99951.28;4363664;32;34894;-73
2022/08/07 03:27:25;;;;;;;5.60;4.10;;;;;;;19.13;77.12;99950.03;4363735;32;34455;-74
2022/08/07 03:30:29;;;;;;;6.93;4.22;;;;;;;18.86;78.46;99958.09;4367449;32;35704;-74
2022/08/07 03:33:17;;;;;;;5.45;3.95;;;;;;;19.05;77.09;99951.81;4362881;32;34972;-74
2022/08/07 03:36:06;;;;;;;6.53;4.12;;;;;;;19.68;74.40;99955.63;4372299;32;34712;-74
2022/08/07 03:38:57;;;;;;;6.47;3.72;;;;;;;19.12;77.23;99959.50;4352582;32;35041;-74
2022/08/07 03:41:51;;;;;;;10.68;4.47;;;;;;;19.21;76.75;99950.97;4339482;32;34565;-74
2022/08/07 03:44:39;;;;;;;8.40;4.00;;;;;;;19.70;74.04;99956.06;4363861;32;36009;-74
2022/08/07 03:47:26;;;;;;;5.25;3.92;;;;;;;19.15;77.13;99957.97;4371968;32;33657;-74
2022/08/07 03:50:33;;;;;;;6.87;4.30;;;;;;;18.79;78.44;99969.03;4362985;32;35173;-73
2022/08/07 03:53:20;;;;;;;6.37;4.22;;;;;;;18.78;79.04;99975.72;4360313;32;34816;-74
2022/08/07 03:56:30;;;;;;;8.60;4.28;;;;;;;18.58;80.56;99974.00;4363642;32;36035;-75
2022/08/07 03:59:20;;;;;;;5.62;4.00;;;;;;;19.00;78.09;99979.84;4336670;32;34655;-74
2022/08/07 04:02:07;;;;;;;5.18;3.67;;;;;;;18.99;77.84;99983.00;4355417;32;33904;-75
2022/08/07 04:04:54;;;;;;;7.00;4.20;;;;;;;19.32;76.28;99986.19;4362934;32;35693;-74
2022/08/07 04:07:45;;;;;;;4.87;3.47;;;;;;;19.20;77.21;99988.25;4363556;32;34984;-74
2022/08/07 04:10:34;;;;;;;6.47;4.03;;;;;;;19.05;77.89;99998.22;4362766;32;35488;-74
2022/08/07 04:13:24;;;;;;;6.95;4.18;;;;;;;18.98;78.01;100004.41;4359571;32;34115;-75
2022/08/07 04:16:13;;;;;;;6.03;4.47;;;;;;;18.47;80.27;100006.19;4353307;32;35617;-74
2022/08/07 04:19:15;;;;;;;6.90;3.97;;;;;;;18.87;78.16;99995.81;4364674;32;34987;-74
2022/08/07 04:22:03;;;;;;;5.25;3.90;;;;;;;18.95;78.78;100004.31;4353641;32;35784;-84
2022/08/07 04:24:59;;;;;;;5.70;3.80;;;;;;;19.49;76.24;100000.81;4347450;32;34403;-78
2022/08/07 04:27:47;;;;;;;6.00;4.20;;;;;;;18.64;80.61;100014.19;4356254;32;35513;-78
2022/08/07 04:30:48;;;;;;;8.90;4.10;;;;;;;18.97;79.95;100018.66;4357872;32;36012;-81
2022/08/07 04:33:45;;;;;;;5.62;4.22;;;;;;;18.66;81.25;100018.22;4356180;32;35483;-77
2022/08/07 04:36:41;;;;;;;5.40;3.92;;;;;;;18.77;80.37;100013.00;4357834;32;33700;-78
2022/08/07 04:39:30;;;;;;;4.87;3.67;;;;;;;18.88;80.18;100016.84;4357302;32;34729;-78
2022/08/07 04:42:26;;;;;;;5.82;3.95;;;;;;;18.75;80.77;100022.84;4357628;32;36013;-78
2022/08/07 04:45:14;;;;;;;7.40;4.75;;;;;;;18.76;80.29;100025.25;4357552;32;34333;-78
2022/08/07 04:48:14;;;;;;;6.05;4.00;;;;;;;18.66;81.41;100020.19;4356268;32;33765;-78
2022/08/07 04:51:06;;;;;;;6.68;4.65;;;;;;;18.41;82.33;100016.75;4357215;32;34410;-78
2022/08/07 04:54:19;;;;;;;4.75;3.70;;;;;;;18.66;80.86;100023.78;4357957;32;35028;-78
2022/08/07 04:57:31;;;;;;;6.93;4.10;;;;;;;18.85;80.27;100023.13;4357603;32;34389;-80
2022/08/07 05:00:46;;;;;;;6.62;4.37;;;;;;;19.05;79.06;100018.47;4355829;32;33690;-77
2022/08/07 05:03:58;;;;;;;6.03;4.05;;;;;;;18.86;80.04;100023.91;4357226;32;35255;-78
2022/08/07 05:07:00;;;;;;;6.32;3.90;;;;;;;18.68;81.22;100028.97;4354794;32;34573;-78
2022/08/07 05:10:34;;;;;;;7.20;4.12;;;;;;;19.15;78.22;100019.87;4358930;32;34638;-78
2022/08/07 05:13:35;;;;;;;9.77;4.12;;;;;;;19.18;78.63;100018.34;4345217;32;34147;-78
2022/08/07 05:16:46;;;;;;;7.85;4.05;;;;;;;18.82;79.92;100018.28;4348930;32;34165;-77
2022/08/07 05:19:48;;;;;;;6.28;3.53;;;;;;;19.09;78.87;100026.87;4355921;32;35920;-78
2022/08/07 05:22:37;;;;;;;6.30;4.45;;;;;;;19.01;78.83;100030.63;4357176;32;34903;-77
2022/08/07 05:25:26;;;;;;;7.20;3.72;;;;;;;19.50;77.63;100027.47;4345862;32;34835;-77
2022/08/07 05:28:33;;;;;;;6.62;4.28;;;;;;;19.34;78.46;100038.59;4356289;32;34297;-78
2022/08/07 05:31:23;;;;;;;6.32;3.83;;;;;;;19.20;78.03;100044.63;4353400;32;35035;-77
2022/08/07 05:34:20;;;;;;;7.35;4.20;;;;;;;19.26;77.99;100043.16;4346898;32;34348;-77
2022/08/07 05:37:11;;;;;;;;;;;;;;;19.17;77.94;100039.78;4356753;32;33853;-78
2022/08/07 05:39:59;;;;;;;5.93;4.12;;;;;;;19.79;75.42;100044.81;4353215;32;35278;-78
2022/08/07 05:42:51;;;;;;;6.30;3.72;;;;;;;19.74;75.70;100048.69;4357757;32;36085;-78
2022/08/07 05:45:42;;;;;;;7.10;3.60;;;;;;;20.00;73.69;100050.84;4350490;32;34704;-78
2022/08/07 05:48:35;;;;;;;4.57;3.67;;;;;;;20.77;70.94;100047.22;4355024;32;33939;-78
2022/08/07 05:51:43;;;;;;;6.80;3.75;;;;;;;20.33;72.14;100049.53;4359867;32;34657;-79
2022/08/07 05:54:32;;;;;;;5.03;3.50;;;;;;;20.34;72.66;100045.59;4360307;32;36021;-78
2022/08/07 05:57:39;;;;;;;5.90;3.50;;;;;;;21.02;69.75;100044.88;4358901;32;34691;-78
2022/08/07 06:00:29;;;;;;;5.40;3.15;;;;;;;21.26;67.68;100045.66;4361929;32;33976;-78
2022/08/07 06:03:18;;;;;;;5.43;3.08;;;;;;;20.40;71.39;100044.91;4338536;32;34558;-77
2022/08/07 06:06:07;;;;;;;6.97;3.42;;;;;;;20.58;70.72;100050.06;4357306;32;33826;-78
2022/08/07 06:08:55;;;;;;;3.95;3.40;;;;;;;20.06;74.12;100054.94;4354328;32;35484;-78
2022/08/07 06:11:44;;;;;;;6.35;3.35;;;;;;;20.67;70.56;100048.66;4354165;32;33769;-78
2022/08/07 06:14:32;;;;;;;4.62;3.00;;;;;;;20.36;73.09;100055.19;4343538;32;33497;-78
2022/08/07 06:17:20;;;;;;;5.62;3.35;;;;;;;20.69;70.73;100053.03;4343479;33;34823;-78
2022/08/07 06:20:23;;;;;;;5.15;3.40;;;;;;;20.67;71.00;100059.78;4344519;33;35789;-78
2022/08/07 06:23:23;;;;;;;5.55;2.75;;;;;;;20.58;70.94;100062.00;4345423;33;34286;-78
2022/08/07 06:26:30;;;;;;;4.68;3.20;;;;;;;20.38;73.06;100074.31;4343663;33;35511;-78
2022/08/07 06:29:16;;;;;;;4.30;3.05;;;;;;;20.76;69.94;100072.69;4335377;33;33468;-78
2022/08/07 06:32:02;;;;;;;5.85;3.08;;;;;;;21.09;68.69;100074.87;4344450;32;35604;-78
2022/08/07 06:34:50;;;;;;;5.72;3.10;;;;;;;20.76;69.01;100072.69;4344616;33;34977;-79
2022/08/07 06:37:37;;;;;;;6.12;3.12;;;;;;;21.14;67.67;100070.94;4344542;33;34318;-78
2022/08/07 06:40:36;;;;;;;4.03;3.00;;;;;;;20.31;71.81;100074.16;4345533;33;34965;-79
2022/08/07 06:43:34;;;;;;;5.57;3.10;;;;;;;20.57;70.83;100079.88;4342877;33;35470;-79
2022/08/07 06:46:26;;;;;;;5.15;3.00;;;;;;;20.47;71.40;100083.22;4353584;32;33882;-79
2022/08/07 06:49:20;;;;;;;4.03;3.00;;;;;;;20.57;72.13;100088.22;4343843;32;35524;-79
2022/08/07 06:52:07;;;;;;;7.65;3.60;;;;;;;20.23;73.62;100089.88;4344447;33;34983;-78
2022/08/07 06:54:56;;;;;;;5.57;3.80;;;;;;;19.99;76.72;100085.41;4352536;32;34227;-79
2022/08/07 06:58:09;;;;;;;5.20;3.25;;;;;;;20.62;72.70;100090.72;4341442;33;34824;-79
2022/08/07 07:00:56;;;;;;;5.12;3.15;;;;;;;21.40;70.48;100084.94;4342573;32;35693;-79
2022/08/07 07:03:43;;;;;;;7.65;3.40;;;;;;;21.38;73.10;100081.75;4342900;33;34830;-78
2022/08/07 07:06:36;;;;;;;5.07;3.00;;;;;;;21.49;68.67;100082.72;4344855;32;33407;-79
2022/08/07 07:09:47;;;;;;;4.78;3.12;;;;;;;22.20;64.77;100079.41;4349210;32;34083;-79
2022/08/07 07:12:48;;;;;;;3.78;2.90;;;;;;;22.73;62.55;100070.81;4352742;32;34450;-79
2022/08/07 07:15:45;;;;;;;5.55;2.97;;;;;;;22.42;63.43;100072.06;4353381;32;35020;-79
2022/08/07 07:18:43;;;;;;;5.75;3.22;;;;;;;22.77;64.16;100077.28;4343225;32;34795;-79
2022/08/07 07:21:37;;;;;;;4.93;3.35;;;;;;;22.82;62.34;100078.91;4348867;32;34441;-79
2022/08/07 07:24:45;;;;;;;7.62;3.00;;;;;;;22.80;62.39;100084.87;4349746;32;33549;-79
2022/08/07 07:28:12;;;;;;;4.60;2.60;;;;;;;22.78;61.43;100083.66;4340209;32;34967;-81
2022/08/07 07:31:26;;;;;;;3.85;2.78;;;;;;;22.61;63.40;100082.28;4328152;32;35488;-80
2022/08/07 07:34:18;;;;;;;4.35;3.00;;;;;;;23.63;61.25;100077.25;4338671;32;34761;-77
2022/08/07 07:37:07;;;;;;;4.53;3.08;;;;;;;23.90;60.08;100075.03;4343920;32;37290;-79
2022/08/07 07:40:18;;;;;;;4.68;2.60;;;;;;;23.94;59.74;100071.06;4346087;32;35939;-79
2022/08/07 07:43:05;;;;;;;4.75;2.78;;;;;;;24.52;56.65;100072.16;4346102;32;33421;-79
2022/08/07 07:46:03;;;;;;;5.60;2.37;;;;;;;24.72;56.49;100064.22;4348397;32;35147;-79
2022/08/07 07:49:11;;;;;;;2.92;2.37;;;;;;;24.60;55.35;100073.78;4350505;32;34306;-79
2022/08/07 07:52:20;;;;;;;3.53;2.12;;;;;;;23.35;57.52;100078.63;4350142;32;34907;-78
2022/08/07 07:55:09;;;;;;;;;;;;;;;24.30;54.06;100067.63;4347535;32;34135;-79
2022/08/07 07:57:57;;;;;;;3.92;2.15;;;;;;;24.06;54.80;100069.94;4327466;32;34020;-79
2022/08/07 08:00:44;;;;;;;3.70;2.05;;;;;;;24.11;52.87;100069.56;4347213;32;34812;-79
2022/08/07 08:03:40;;;;;;;3.30;1.87;;;;;;;23.81;54.27;100071.78;4339259;32;35080;-77
2022/08/07 08:06:46;;;;;;;11.98;4.70;;;;;;;24.67;52.88;100075.78;4339690;32;33356;-79
2022/08/07 08:09:38;;;;;;;3.03;1.98;;;;;;;24.83;52.15;100089.47;4344974;32;33859;-79
2022/08/07 08:12:45;;;;;;;4.62;1.85;;;;;;;24.69;50.68;100079.81;4350786;32;33895;-79
2022/08/07 08:15:46;;;;;;;3.05;1.90;;;;;;;25.37;48.26;100086.75;4343016;32;34878;-80
2022/08/07 08:18:47;;;;;;;3.85;2.33;;;;;;;25.69;48.35;100081.09;4340497;32;34861;-79
2022/08/07 08:28:22;;;;;;;2.17;1.80;;;;;;;24.68;50.09;100081.00;4347111;32;36031;-81
2022/08/07 08:31:25;;;;;;;6.53;3.62;;;;;;;24.52;51.47;100077.75;4340515;32;34297;-80
2022/08/07 08:34:33;;;;;;;3.45;2.20;;;;;;;24.55;51.60;100071.37;4339965;32;33723;-81
2022/08/07 08:37:19;;;;;;;11.60;8.35;;;;;;;25.40;47.78;100075.53;4348868;32;34565;-80
2022/08/07 08:40:39;;;;;;;3.92;2.60;;;;;;;23.54;52.64;100088.78;4340259;32;35025;-80
2022/08/07 08:43:48;;;;;;;4.32;2.10;;;;;;;25.16;50.32;100079.09;4341031;32;34675;-80
2022/08/07 08:47:06;;;;;;;3.87;1.70;;;;;;;26.28;46.85;100084.19;4348669;32;34314;-80
2022/08/07 08:50:09;;;;;;;2.85;1.70;;;;;;;25.86;45.62;100077.50;4338595;32;35338;-80
2022/08/07 08:53:05;;;;;;;3.28;1.58;;;;;;;26.03;44.65;100078.66;4340683;32;35997;-80
2022/08/07 08:56:03;;;;;;;2.20;1.60;;;;;;;26.57;44.49;100076.44;4350186;32;35507;-80
2022/08/07 08:59:03;;;;;;;2.78;2.20;;;;;;;27.37;43.05;100080.34;4338567;32;33694;-80
2022/08/07 09:02:28;;;;;;;3.33;2.00;;;;;;;26.32;43.72;100072.94;4328399;33;34509;-80
2022/08/07 09:05:31;;;;;;;3.85;2.70;;;;;;;26.25;43.53;100071.75;4342670;32;35636;-80
2022/08/07 09:09:00;;;;;;;4.03;2.00;;;;;;;26.92;42.60;100081.09;4360095;32;34454;-80
2022/08/07 09:12:01;;;;;;;1.87;1.67;;;;;;;26.30;44.45;100070.53;4354205;32;34265;-80
2022/08/07 09:15:44;;;;;;;3.03;2.30;;;;;;;26.22;44.62;100074.59;4356922;32;34652;-80
2022/08/07 09:19:00;;;;;;;4.05;1.95;;;;;;;25.94;44.63;100081.88;4356381;32;35003;-80
2022/08/07 09:22:11;;;;;;;7.57;4.75;;;;;;;25.83;44.25;100069.88;4350879;32;36469;-79
2022/08/07 09:25:33;;;;;;;2.58;1.77;;;;;;;24.66;46.80;100077.81;4356946;32;34017;-80
2022/08/07 09:28:38;;;;;;;2.60;2.20;;;;;;;26.10;44.43;100075.00;4345342;32;34209;-80
2022/08/07 09:31:58;;;;;;;8.68;5.37;;;;;;;26.28;44.23;100075.75;4354521;32;34644;-80
2022/08/07 09:35:21;;;;;;;3.37;2.30;;;;;;;25.72;46.82;100074.69;4354300;32;34235;-81
2022/08/07 09:38:42;;;;;;;3.12;2.22;;;;;;;27.27;44.10;100076.44;4356654;32;33795;-80
2022/08/07 09:41:43;;;;;;;3.35;2.40;;;;;;;28.31;42.31;100074.59;4345714;32;33307;-80
2022/08/07 09:45:06;;;;;;;2.87;2.40;;;;;;;28.10;42.18;100062.38;4353048;32;36539;-80
2022/08/07 09:48:33;;;;;;;3.83;2.60;;;;;;;28.77;40.68;100064.72;4360734;32;34563;-80
2022/08/07 09:52:01;;;;;;;3.50;3.10;;;;;;;29.16;39.17;100058.50;4354767;32;34882;-80
2022/08/07 09:55:29;;;;;;;4.37;3.20;;;;;;;28.06;41.33;100057.97;4350634;32;34690;-81
2022/08/07 09:59:02;;;;;;;5.60;3.62;;;;;;;28.94;40.11;100052.38;4346028;32;34964;-80
2022/08/07 10:02:27;;;;;;;4.72;3.25;;;;;;;28.69;40.42;100050.75;4346934;32;34241;-81
2022/08/07 10:05:31;;;;;;;4.07;3.40;;;;;;;29.13;40.01;100045.28;4356207;32;33871;-80
2022/08/07 10:08:46;;;;;;;4.35;3.15;;;;;;;28.75;40.00;100036.97;4356496;32;37007;-81
2022/08/07 10:11:58;;;;;;;3.00;2.70;;;;;;;29.52;38.21;100029.69;4348169;32;34870;-80
2022/08/07 10:15:23;;;;;;;3.90;3.37;;;;;;;29.16;38.76;100032.34;4354941;32;34619;-80
2022/08/07 10:18:38;;;;;;;5.10;3.90;;;;;;;29.31;40.22;100033.66;4354500;32;34053;-81
2022/08/07 10:21:44;;;;;;;5.12;3.97;;;;;;;29.74;40.12;100021.62;4347451;32;34600;-80
2022/08/07 10:25:15;;;;;;;4.80;3.95;;;;;;;28.70;41.46;100026.97;4346884;32;34974;-80
2022/08/07 10:28:40;;;;;;;5.32;3.62;;;;;;;28.97;38.70;100030.97;4350981;32;34107;-80
2022/08/07 10:32:04;;;;;;;5.25;3.70;;;;;;;29.65;37.42;100010.91;4356915;32;34887;-80
2022/08/07 10:35:48;;;;;;;5.57;3.65;;;;;;;29.26;38.61;100015.22;4355512;32;34256;-80
2022/08/07 10:39:08;;;;;;;6.22;3.50;;;;;;;30.02;37.73;100011.78;4353027;32;35588;-80
2022/08/07 10:42:06;;;;;;;8.20;5.12;;;;;;;30.30;36.40;100012.44;4353467;32;34289;-80
2022/08/07 10:45:46;;;;;;;4.70;3.62;;;;;;;30.20;36.79;100000.91;4351445;32;34202;-80
2022/08/07 10:48:53;;;;;;;6.20;4.35;;;;;;;29.91;37.25;100006.34;4316603;32;33380;-80
2022/08/07 10:51:54;;;;;;;8.38;4.20;;;;;;;29.78;39.14;100002.59;4356991;32;35576;-80
2022/08/07 10:55:29;;;;;;;4.68;4.10;;;;;;;30.07;38.00;99993.53;4355428;32;35530;-80
2022/08/07 10:58:52;;;;;;;4.00;3.10;;;;;;;30.29;37.36;99991.88;4357366;32;34964;-80
2022/08/07 11:02:14;;;;;;;3.75;3.12;;;;;;;30.93;34.79;99996.03;4356991;32;34579;-80
2022/08/07 11:05:30;;;;;;;3.97;3.55;;;;;;;30.51;36.15;99994.22;4353337;32;35027;-81
2022/08/07 11:08:55;;;;;;;4.68;3.60;;;;;;;30.46;36.80;99992.72;4357305;32;35636;-81
2022/08/07 11:11:50;;;;;;;4.35;3.42;;;;;;;30.16;37.94;99985.25;4354208;32;34226;-80
2022/08/07 11:14:47;;;;;;;7.85;3.70;;;;;;;30.80;36.65;99986.69;4356445;32;33573;-80
2022/08/07 11:17:55;;;;;;;4.53;3.20;;;;;;;31.48;34.52;99984.16;4351976;32;35081;-83
2022/08/07 11:21:01;;;;;;;4.15;3.40;;;;;;;31.51;34.44;99977.63;4356471;32;34302;-83
2022/08/07 11:23:59;;;;;;;3.70;3.08;;;;;;;32.36;33.72;99976.38;4348968;32;34139;-85
2022/08/07 11:27:10;;;;;;;3.40;2.90;;;;;;;31.72;32.74;99968.50;4350784;32;34629;-83
2022/08/07 11:30:03;;;;;;;3.33;3.00;;;;;;;32.28;31.68;99960.84;4354148;32;35529;-84
2022/08/07 11:33:10;;;;;;;4.43;3.10;;;;;;;32.75;32.55;99965.84;4356979;32;34834;-83
2022/08/07 11:36:27;;;;;;;6.45;3.58;;;;;;;32.61;32.05;99956.53;4358147;32;35353;-84
2022/08/07 11:39:39;;;;;;;6.12;3.28;;;;;;;30.63;33.60;99959.59;4358263;32;34619;-84
2022/08/07 11:42:57;;;;;;;4.70;3.33;;;;;;;32.09;32.47;99962.63;4351836;32;34595;-83
2022/08/07 11:46:03;;;;;;;4.68;3.85;;;;;;;32.47;31.86;99957.00;4358567;32;35401;-84
2022/08/07 11:48:53;;;;;;;4.05;3.17;;;;;;;33.12;30.92;99953.66;4354983;32;34233;-84
2022/08/07 11:52:24;;;;;;;5.43;3.40;;;;;;;33.38;31.01;99953.56;4356177;32;35589;-84
2022/08/07 11:55:34;;;;;;;4.05;3.42;;;;;;;33.58;29.44;99945.56;4357697;32;34597;-83
2022/08/07 11:58:55;;;;;;;5.37;3.45;;;;;;;33.11;30.00;99935.03;4357810;32;35391;-84
2022/08/07 12:02:20;;;;;;;3.50;3.10;;;;;;;30.88;34.02;99937.19;4355289;32;34189;-84
2022/08/07 12:05:27;;;;;;;4.10;3.53;;;;;;;32.97;31.28;99924.16;4353950;32;35726;-83
2022/08/07 12:08:35;;;;;;;4.65;3.50;;;;;;;31.94;32.24;99928.25;4358289;32;35507;-85
2022/08/07 12:11:46;;;;;;;;;;;;;;;33.37;30.30;99929.25;4356966;32;34646;-85
2022/08/07 12:15:01;;;;;;;6.07;3.75;;;;;;;33.29;30.74;99927.94;4358217;32;34202;-85
2022/08/07 12:17:59;;;;;;;4.65;3.67;;;;;;;31.90;31.82;99916.97;4355213;32;34758;-85
2022/08/07 12:21:07;;;;;;;5.78;3.58;;;;;;;32.02;32.32;99918.31;4354878;32;35949;-85
2022/08/07 12:24:09;;;;;;;7.72;3.58;;;;;;;32.60;31.71;99918.09;4357933;32;35098;-85
2022/08/07 12:27:17;;;;;;;5.30;3.80;;;;;;;33.06;31.74;99914.97;4357675;32;33759;-85
2022/08/07 12:30:15;;;;;;;7.07;3.87;;;;;;;33.21;31.79;99903.88;4360653;32;35581;-85
2022/08/07 12:33:17;;;;;;;4.82;3.70;;;;;;;34.36;29.61;99900.38;4353252;32;34527;-84
2022/08/07 12:36:14;;;;;;;4.97;3.28;;;;;;;34.74;28.84;99897.19;4357130;32;34827;-84
2022/08/07 12:39:03;;;;;;;3.72;3.30;;;;;;;34.93;27.69;99898.00;4341892;32;34358;-85
2022/08/07 12:42:11;;;;;;;3.95;3.17;;;;;;;35.19;28.13;99904.22;4350011;32;34656;-84
2022/08/07 12:45:04;;;;;;;4.53;3.60;;;;;;;34.64;29.04;99887.06;4347875;32;34587;-87
2022/08/07 12:48:15;;;;;;;5.07;3.70;;;;;;;33.42;30.35;99897.44;4356239;32;35415;-85
2022/08/07 12:51:26;;;;;;;7.60;3.85;;;;;;;33.51;30.97;99888.19;4357293;32;34220;-85
2022/08/07 12:54:40;;;;;;;4.00;3.40;;;;;;;34.26;29.84;99880.41;4359224;32;34222;-85
2022/08/07 12:57:30;;;;;;;6.60;3.85;;;;;;;34.51;30.72;99883.50;4360459;32;33792;-85
2022/08/07 13:00:46;;;;;;;6.03;3.90;;;;;;;35.26;28.55;99883.16;4357102;32;34755;-87
2022/08/07 13:04:01;;;;;;;6.47;4.05;;;;;;;35.56;28.37;99884.28;4358095;32;34203;-85
2022/08/07 13:07:02;;;;;;;4.20;3.62;;;;;;;35.08;27.79;99879.06;4349647;32;33873;-87
2022/08/07 13:10:06;;;;;;;4.22;3.72;;;;;;;35.95;28.13;99884.50;4363055;32;34339;-87
2022/08/07 13:13:25;;;;;;;4.70;4.00;;;;;;;35.65;27.09;99870.00;4356787;32;34231;-85
2022/08/07 13:16:48;;;;;;;4.45;3.62;;;;;;;32.51;31.22;99874.66;4357648;32;35169;-84
2022/08/07 13:19:57;;;;;;;4.87;3.80;;;;;;;33.63;29.70;99870.31;4357663;32;35837;-86
2022/08/07 13:22:55;;;;;;;5.32;3.65;;;;;;;33.58;30.09;99865.22;4350638;32;34978;-86
2022/08/07 13:25:45;;;;;;;13.82;5.57;;;;;;;33.68;30.46;99863.25;4352362;32;34813;-84
2022/08/07 13:28:45;;;;;;;5.93;3.60;;;;;;;33.89;29.23;99873.75;4358467;32;34191;-86
2022/08/07 13:31:39;;;;;;;4.30;3.62;;;;;;;33.45;29.63;99868.12;4352273;32;35869;-85
2022/08/07 13:34:50;;;;;;;5.37;3.85;;;;;;;34.26;29.39;99863.34;4356718;32;34665;-85
2022/08/07 13:37:47;;;;;;;3.83;3.45;;;;;;;31.98;32.19;99866.59;4361727;32;35013;-86
2022/08/07 13:41:20;;;;;;;7.37;3.85;;;;;;;32.50;31.08;99858.88;4354860;32;35297;-86
2022/08/07 13:44:09;;;;;;;5.47;3.83;;;;;;;34.04;28.56;99848.47;4343539;32;35565;-87
2022/08/07 13:46:59;;;;;;;5.57;3.83;;;;;;;33.96;28.76;99847.91;4359008;32;34609;-85
2022/08/07 13:49:46;;;;;;;5.25;3.70;;;;;;;33.77;30.06;99843.41;4356777;32;34436;-86
2022/08/07 13:52:55;;;;;;;4.03;3.22;;;;;;;32.60;31.77;99838.66;4351475;32;34696;-86
2022/08/07 13:55:43;;;;;;;;;;;;;;;33.03;31.14;99842.09;4350399;32;33635;-85
2022/08/07 13:58:59;;;;;;;5.03;3.40;;;;;;;33.25;29.04;99836.44;4348614;32;34958;-86
2022/08/07 14:01:56;;;;;;;4.85;3.97;;;;;;;33.37;29.47;99827.81;4356667;32;35217;-86
2022/08/07 14:04:53;;;;;;;6.97;3.42;;;;;;;32.02;31.13;99830.47;4353590;32;34052;-85
2022/08/07 14:07:42;;;;;;;6.07;3.60;;;;;;;32.95;30.17;99833.00;4352267;32;34418;-86
2022/08/07 14:10:48;;;;;;;5.03;3.70;;;;;;;31.41;32.31;99826.59;4350271;32;35484;-86
2022/08/07 14:14:07;;;;;;;5.62;3.75;;;;;;;32.40;31.25;99830.41;4351426;32;34399;-86
2022/08/07 14:16:56;;;;;;;5.18;3.53;;;;;;;32.52;30.41;99820.31;4354857;32;34219;-86